createdAt,value
2016-03-19T00:00:49.486Z,4.62
2016-03-19T00:01:49.489Z,4.6
2016-03-19T00:02:49.475Z,4.67
2016-03-19T00:03:49.494Z,4.6
2016-03-19T00:04:49.481Z,4.66
2016-03-19T00:05:49.467Z,4.59
2016-03-19T00:06:49.502Z,4.58
2016-03-19T00:07:49.457Z,4.63
2016-03-19T00:08:49.444Z,4.6
2016-03-19T00:09:49.463Z,4.58
2016-03-19T00:10:49.481Z,4.58
2016-03-19T00:11:49.296Z,4.53
2016-03-19T00:12:49.455Z,4.56
2016-03-19T00:13:49.442Z,4.52
2016-03-19T00:14:49.476Z,4.5
2016-03-19T00:15:49.432Z,4.49
2016-03-19T00:16:49.419Z,4.5
2016-03-19T00:17:49.421Z,4.62
2016-03-19T00:18:49.441Z,4.66
2016-03-19T00:19:49.427Z,4.63
2016-03-19T00:20:49.430Z,4.66
2016-03-19T00:21:49.432Z,4.7
2016-03-19T00:22:49.435Z,4.63
2016-03-19T00:23:49.391Z,4.66
2016-03-19T00:24:49.394Z,4.62
2016-03-19T00:25:49.381Z,4.6
2016-03-19T00:26:49.243Z,4.6
2016-03-19T00:27:49.387Z,4.59
2016-03-19T00:28:48.623Z,4.58
2016-03-19T00:29:49.392Z,4.56
2016-03-19T00:30:49.395Z,4.59
2016-03-19T00:31:49.382Z,4.55
2016-03-19T00:32:49.368Z,4.5
2016-03-19T00:33:49.450Z,4.5
2016-03-19T00:34:49.374Z,4.52
2016-03-19T00:35:49.361Z,4.45
2016-03-19T00:36:49.395Z,4.52
2016-03-19T00:37:49.350Z,4.45
2016-03-19T00:38:49.339Z,4.37
2016-03-19T00:39:49.387Z,4.4
2016-03-19T00:40:49.344Z,4.32
2016-03-19T00:41:49.377Z,4.4
2016-03-19T00:42:49.317Z,4.32
2016-03-19T00:43:49.335Z,4.32
2016-03-19T00:44:49.323Z,4.34
2016-03-19T00:45:49.326Z,4.34
2016-03-19T00:46:49.360Z,4.32
2016-03-19T00:47:49.316Z,4.28
2016-03-19T00:48:49.318Z,4.35
2016-03-19T00:49:49.305Z,4.3
2016-03-19T00:50:49.308Z,4.23
2016-03-19T00:51:49.342Z,4.19
2016-03-19T00:52:49.282Z,4.22
2016-03-19T00:53:49.285Z,4.19
2016-03-19T00:54:49.288Z,4.14
2016-03-19T00:55:49.290Z,4.04
2016-03-19T00:56:49.308Z,3.86
2016-03-19T00:57:49.265Z,3.84
2016-03-19T00:58:49.267Z,3.77
2016-03-19T00:59:49.254Z,3.77
2016-03-19T01:00:49.257Z,3.78
2016-03-19T01:01:49.259Z,3.76
2016-03-19T01:02:49.262Z,3.74
2016-03-19T01:03:49.264Z,3.78
2016-03-19T01:04:49.237Z,3.68
2016-03-19T01:05:49.254Z,3.66
2016-03-19T01:06:49.273Z,3.74
2016-03-19T01:07:49.073Z,3.74
2016-03-19T01:08:49.238Z,3.73
2016-03-19T01:09:49.215Z,3.76
2016-03-19T01:10:49.209Z,3.74
2016-03-19T01:11:49.186Z,3.7
2016-03-19T01:12:49.179Z,3.84
2016-03-19T01:13:49.146Z,3.68
2016-03-19T01:14:49.161Z,3.7
2016-03-19T01:15:49.145Z,3.76
2016-03-19T01:16:49.160Z,3.73
2016-03-19T01:17:49.159Z,3.74
2016-03-19T01:18:49.129Z,3.74
2016-03-19T01:19:49.146Z,3.73
2016-03-19T01:20:49.116Z,3.81
2016-03-19T01:21:49.118Z,3.74
2016-03-19T01:22:49.120Z,3.77
2016-03-19T01:23:49.106Z,3.83
2016-03-19T01:24:49.108Z,3.76
2016-03-19T01:25:49.096Z,3.77
2016-03-19T01:26:49.098Z,3.73
2016-03-19T01:27:49.084Z,3.74
2016-03-19T01:28:49.087Z,3.74
2016-03-19T01:29:49.090Z,3.69
2016-03-19T01:30:49.077Z,3.74
2016-03-19T01:31:49.064Z,3.78
2016-03-19T01:32:49.050Z,3.8
2016-03-19T01:33:49.069Z,3.73
2016-03-19T01:34:49.056Z,3.66
2016-03-19T01:35:49.044Z,3.63
2016-03-19T01:36:49.062Z,3.66
2016-03-19T01:37:49.033Z,3.65
2016-03-19T01:38:48.895Z,3.66
2016-03-19T01:39:49.069Z,3.74
2016-03-19T01:40:49.041Z,3.69
2016-03-19T01:41:49.028Z,3.7
2016-03-19T01:42:49.030Z,3.68
2016-03-19T01:43:49.049Z,3.68
2016-03-19T01:44:49.004Z,3.6
2016-03-19T01:45:49.008Z,3.69
2016-03-19T01:46:49.010Z,3.73
2016-03-19T01:47:48.997Z,3.63
2016-03-19T01:48:49.016Z,3.65
2016-03-19T01:49:49.002Z,3.65
2016-03-19T01:50:49.037Z,3.62
2016-03-19T01:51:49.007Z,3.65
2016-03-19T01:52:48.996Z,3.55
2016-03-19T01:53:48.982Z,3.55
2016-03-19T01:54:48.970Z,3.5
2016-03-19T01:55:48.987Z,3.51
2016-03-19T01:56:49.006Z,3.51
2016-03-19T01:57:48.946Z,3.42
2016-03-19T01:58:48.980Z,3.34
2016-03-19T01:59:48.937Z,3.4
2016-03-19T02:00:48.923Z,3.41
2016-03-19T02:01:48.957Z,3.45
2016-03-19T02:02:48.944Z,3.37
2016-03-19T02:03:48.931Z,3.34
2016-03-19T02:04:48.918Z,3.4
2016-03-19T02:05:48.937Z,3.28
2016-03-19T02:06:48.908Z,3.29
2016-03-19T02:07:48.925Z,3.29
2016-03-19T02:08:48.914Z,3.26
2016-03-19T02:09:48.900Z,3.21
2016-03-19T02:10:48.763Z,3.19
2016-03-19T02:11:48.891Z,3.22
2016-03-19T02:12:48.893Z,3.11
2016-03-19T02:13:48.880Z,3.28
2016-03-19T02:14:48.882Z,3.11
2016-03-19T02:15:48.886Z,3.08
2016-03-19T02:16:48.888Z,3.13
2016-03-19T02:17:48.874Z,3.1
2016-03-19T02:18:48.862Z,3.08
2016-03-19T02:19:48.865Z,3.1
2016-03-19T02:20:48.851Z,3.13
2016-03-19T02:21:48.854Z,3.14
2016-03-19T02:22:48.857Z,3.11
2016-03-19T02:23:48.844Z,3.13
2016-03-19T02:24:48.846Z,3.13
2016-03-19T02:25:48.834Z,3.04
2016-03-19T02:26:48.821Z,3.1
2016-03-19T02:27:48.824Z,3.08
2016-03-19T02:28:48.826Z,3.11
2016-03-19T02:29:48.813Z,3.08
2016-03-19T02:30:48.800Z,3.07
2016-03-19T02:31:48.803Z,3.08
2016-03-19T02:32:48.790Z,2.97
2016-03-19T02:33:48.778Z,3.04
2016-03-19T02:34:48.781Z,3
2016-03-19T02:35:48.798Z,2.97
2016-03-19T02:36:48.769Z,3.01
2016-03-19T02:37:48.803Z,2.93
2016-03-19T02:38:48.791Z,3.01
2016-03-19T02:39:48.778Z,2.83
2016-03-19T02:40:48.764Z,2.9
2016-03-19T02:41:48.752Z,2.87
2016-03-19T02:42:48.755Z,2.95
2016-03-19T02:43:48.742Z,2.93
2016-03-19T02:44:48.744Z,2.83
2016-03-19T02:45:48.747Z,2.87
2016-03-19T02:46:48.766Z,2.85
2016-03-19T02:47:48.737Z,2.77
2016-03-19T02:48:48.755Z,2.83
2016-03-19T02:49:48.711Z,2.82
2016-03-19T02:50:48.714Z,2.8
2016-03-19T02:51:48.701Z,2.69
2016-03-19T02:52:48.718Z,2.72
2016-03-19T02:53:48.721Z,2.69
2016-03-19T02:54:48.709Z,2.74
2016-03-19T02:55:48.712Z,2.69
2016-03-19T02:56:48.682Z,2.75
2016-03-19T02:57:48.670Z,2.75
2016-03-19T02:58:48.673Z,2.64
2016-03-19T02:59:48.675Z,2.6
2016-03-19T03:00:48.679Z,2.6
2016-03-19T03:01:48.650Z,2.61
2016-03-19T03:02:48.637Z,2.51
2016-03-19T03:03:48.655Z,2.57
2016-03-19T03:04:48.642Z,2.56
2016-03-19T03:05:48.645Z,2.51
2016-03-19T03:06:48.631Z,2.43
2016-03-19T03:07:48.619Z,2.43
2016-03-19T03:08:48.637Z,2.38
2016-03-19T03:09:48.639Z,2.43
2016-03-19T03:10:48.627Z,2.35
2016-03-19T03:11:48.614Z,2.31
2016-03-19T03:12:48.617Z,2.36
2016-03-19T03:13:48.603Z,2.25
2016-03-19T03:14:48.621Z,2.26
2016-03-19T03:15:48.593Z,2.29
2016-03-19T03:16:48.611Z,2.31
2016-03-19T03:17:48.583Z,2.2
2016-03-19T03:18:48.570Z,2.29
2016-03-19T03:19:48.558Z,2.15
2016-03-19T03:20:48.576Z,2.17
2016-03-19T03:21:48.546Z,2.15
2016-03-19T03:22:48.565Z,2.14
2016-03-19T03:23:48.568Z,2.08
2016-03-19T03:24:48.587Z,2.17
2016-03-19T03:25:48.526Z,1.99
2016-03-19T03:26:48.545Z,2.1
2016-03-19T03:27:48.516Z,2.06
2016-03-19T03:28:48.534Z,2.06
2016-03-19T03:29:48.521Z,2.07
2016-03-19T03:30:48.540Z,2.04
2016-03-19T03:31:48.512Z,2.08
2016-03-19T03:32:48.484Z,2.06
2016-03-19T03:33:48.501Z,2.02
2016-03-19T03:34:48.489Z,1.99
2016-03-19T03:35:48.475Z,1.95
2016-03-19T03:36:48.478Z,1.94
2016-03-19T03:37:48.465Z,1.97
2016-03-19T03:38:48.468Z,1.94
2016-03-19T03:39:48.470Z,2.04
2016-03-19T03:40:48.458Z,1.92
2016-03-19T03:41:48.445Z,1.92
2016-03-19T03:42:48.464Z,1.95
2016-03-19T03:43:48.450Z,1.85
2016-03-19T03:44:48.436Z,2
2016-03-19T03:45:48.439Z,1.99
2016-03-19T03:46:48.427Z,1.94
2016-03-19T03:47:48.429Z,1.95
2016-03-19T03:48:48.432Z,1.99
2016-03-19T03:49:48.403Z,1.87
2016-03-19T03:50:48.235Z,1.94
2016-03-19T03:51:48.393Z,2
2016-03-19T03:52:48.396Z,1.87
2016-03-19T03:53:48.383Z,2
2016-03-19T03:54:48.370Z,1.85
2016-03-19T03:55:48.388Z,1.94
2016-03-19T03:56:48.375Z,1.92
2016-03-19T03:57:48.379Z,1.91
2016-03-19T03:58:48.365Z,2
2016-03-19T03:59:48.367Z,1.85
2016-03-19T04:00:48.198Z,1.99
2016-03-19T04:01:48.326Z,1.92
2016-03-19T04:02:48.392Z,1.94
2016-03-19T04:03:48.331Z,1.91
2016-03-19T04:04:48.320Z,1.94
2016-03-19T04:05:48.322Z,1.94
2016-03-19T04:06:48.308Z,1.88
2016-03-19T04:07:48.311Z,1.89
2016-03-19T04:08:48.298Z,1.89
2016-03-19T04:09:48.301Z,1.91
2016-03-19T04:10:48.303Z,2
2016-03-19T04:11:48.291Z,1.92
2016-03-19T04:12:47.527Z,2.04
2016-03-19T04:13:48.297Z,1.88
2016-03-19T04:14:48.267Z,1.85
2016-03-19T04:15:48.286Z,1.88
2016-03-19T04:16:48.258Z,1.94
2016-03-19T04:17:48.260Z,1.88
2016-03-19T04:18:48.263Z,1.92
2016-03-19T04:19:48.219Z,1.87
2016-03-19T04:20:48.238Z,1.91
2016-03-19T04:21:48.240Z,1.89
2016-03-19T04:22:48.226Z,1.95
2016-03-19T04:23:48.260Z,1.89
2016-03-19T04:24:48.201Z,1.99
2016-03-19T04:25:48.203Z,1.91
2016-03-19T04:26:48.207Z,1.81
2016-03-19T04:27:48.209Z,1.92
2016-03-19T04:28:48.180Z,2.02
2016-03-19T04:29:48.182Z,1.85
2016-03-19T04:30:48.185Z,2.04
2016-03-19T04:31:48.173Z,1.94
2016-03-19T04:32:48.175Z,1.95
2016-03-19T04:33:48.193Z,1.99
2016-03-19T04:34:48.180Z,2.07
2016-03-19T04:35:48.137Z,1.97
2016-03-19T04:36:48.139Z,2.06
2016-03-19T04:37:48.158Z,2.13
2016-03-19T04:38:48.176Z,2.07
2016-03-19T04:39:48.116Z,2.13
2016-03-19T04:40:48.134Z,2.17
2016-03-19T04:41:48.105Z,2.26
2016-03-19T04:42:48.125Z,2.29
2016-03-19T04:43:48.142Z,2.28
2016-03-19T04:44:48.098Z,2.43
2016-03-19T04:45:48.132Z,2.39
2016-03-19T04:46:48.072Z,2.39
2016-03-19T04:47:48.091Z,2.36
2016-03-19T04:48:48.077Z,2.31
2016-03-19T04:49:48.066Z,2.24
2016-03-19T04:50:48.068Z,2.28
2016-03-19T04:51:48.071Z,2.33
2016-03-19T04:52:48.057Z,2.25
2016-03-19T04:53:48.060Z,2.25
2016-03-19T04:54:48.063Z,2.25
2016-03-19T04:55:48.049Z,2.2
2016-03-19T04:56:48.037Z,2.22
2016-03-19T04:57:48.055Z,2.22
2016-03-19T04:58:48.026Z,2.22
2016-03-19T04:59:48.045Z,2.22
2016-03-19T05:00:48.016Z,2.25
2016-03-19T05:01:48.035Z,2.2
2016-03-19T05:02:48.007Z,2.11
2016-03-19T05:03:47.993Z,2.15
2016-03-19T05:04:47.995Z,2.18
2016-03-19T05:05:47.999Z,2.17
2016-03-19T05:06:48.001Z,2.17
2016-03-19T05:07:47.972Z,2.22
2016-03-19T05:08:47.959Z,2.2
2016-03-19T05:09:47.947Z,2.2
2016-03-19T05:10:47.965Z,2.22
2016-03-19T05:11:47.952Z,2.25
2016-03-19T05:12:47.956Z,2.22
2016-03-19T05:13:47.942Z,2.24
2016-03-19T05:14:47.976Z,2.13
2016-03-19T05:15:47.947Z,2.13
2016-03-19T05:16:47.919Z,2.13
2016-03-19T05:17:47.921Z,2.17
2016-03-19T05:18:47.939Z,2.2
2016-03-19T05:19:47.910Z,2.04
2016-03-19T05:20:47.883Z,2.15
2016-03-19T05:21:47.885Z,2.08
2016-03-19T05:22:47.872Z,2.02
2016-03-19T05:23:47.906Z,2.11
2016-03-19T05:24:47.878Z,2.11
2016-03-19T05:25:47.896Z,2.1
2016-03-19T05:26:47.867Z,2.13
2016-03-19T05:27:47.855Z,2.11
2016-03-19T05:28:47.857Z,2.06
2016-03-19T05:29:47.876Z,2.15
2016-03-19T05:30:47.846Z,2.06
2016-03-19T05:31:47.865Z,2.02
2016-03-19T05:32:47.837Z,1.94
2016-03-19T05:33:47.823Z,1.91
2016-03-19T05:34:47.812Z,1.91
2016-03-19T05:35:47.814Z,1.8
2016-03-19T05:36:47.645Z,1.88
2016-03-19T05:37:47.819Z,1.88
2016-03-19T05:38:47.790Z,1.77
2016-03-19T05:39:47.778Z,1.76
2016-03-19T05:40:47.795Z,1.76
2016-03-19T05:41:47.783Z,1.77
2016-03-19T05:42:47.785Z,1.66
2016-03-19T05:43:47.757Z,1.66
2016-03-19T05:44:47.806Z,1.63
2016-03-19T05:45:47.747Z,1.58
2016-03-19T05:46:47.765Z,1.62
2016-03-19T05:47:47.580Z,1.6
2016-03-19T05:48:47.770Z,1.66
2016-03-19T05:49:47.726Z,1.67
2016-03-19T05:50:47.730Z,1.66
2016-03-19T05:51:47.732Z,1.6
2016-03-19T05:52:47.703Z,1.62
2016-03-19T05:53:47.721Z,1.71
2016-03-19T05:54:47.708Z,1.8
2016-03-19T05:55:47.696Z,1.71
2016-03-19T05:56:47.682Z,1.87
2016-03-19T05:57:47.669Z,1.85
2016-03-19T05:58:47.672Z,1.88
2016-03-19T05:59:47.691Z,1.81
2016-03-19T06:00:47.693Z,1.87
2016-03-19T06:01:47.648Z,1.92
2016-03-19T06:02:47.652Z,1.95
2016-03-19T06:03:47.670Z,1.87
2016-03-19T06:04:47.642Z,1.94
2016-03-19T06:05:47.659Z,2
2016-03-19T06:06:47.693Z,1.94
2016-03-19T06:07:47.650Z,2.04
2016-03-19T06:08:47.605Z,1.92
2016-03-19T06:09:47.609Z,2.06
2016-03-19T06:10:47.595Z,2.1
2016-03-19T06:11:47.628Z,2.06
2016-03-19T06:12:47.601Z,2.14
2016-03-19T06:13:47.587Z,2.08
2016-03-19T06:14:47.575Z,2.13
2016-03-19T06:15:47.577Z,2.14
2016-03-19T06:16:47.580Z,2.07
2016-03-19T06:17:47.567Z,2.11
2016-03-19T06:18:47.569Z,2.17
2016-03-19T06:19:47.588Z,2.14
2016-03-19T06:20:47.560Z,2.13
2016-03-19T06:21:47.547Z,2.18
2016-03-19T06:22:47.533Z,2.14
2016-03-19T06:23:47.552Z,2.18
2016-03-19T06:24:47.538Z,2.31
2016-03-19T06:25:47.558Z,2.26
2016-03-19T06:26:47.529Z,2.35
2016-03-19T06:27:47.499Z,2.38
2016-03-19T06:28:47.502Z,2.38
2016-03-19T06:29:47.505Z,2.38
2016-03-19T06:30:47.527Z,2.32
2016-03-19T06:31:47.482Z,2.43
2016-03-19T06:32:47.501Z,2.44
2016-03-19T06:33:47.488Z,2.46
2016-03-19T06:34:47.506Z,2.46
2016-03-19T06:35:47.462Z,2.42
2016-03-19T06:36:47.481Z,2.42
2016-03-19T06:37:47.467Z,2.46
2016-03-19T06:38:47.470Z,2.54
2016-03-19T06:39:47.472Z,2.61
2016-03-19T06:40:47.507Z,2.61
2016-03-19T06:41:47.447Z,2.64
2016-03-19T06:42:47.434Z,2.61
2016-03-19T06:43:47.437Z,2.54
2016-03-19T06:44:47.439Z,2.64
2016-03-19T06:45:47.442Z,2.6
2016-03-19T06:46:47.428Z,2.72
2016-03-19T06:47:47.417Z,2.67
2016-03-19T06:48:47.403Z,2.68
2016-03-19T06:49:47.391Z,2.82
2016-03-19T06:50:47.439Z,2.75
2016-03-19T06:51:47.396Z,2.74
2016-03-19T06:52:47.414Z,2.82
2016-03-19T06:53:47.369Z,2.83
2016-03-19T06:54:47.404Z,3
2016-03-19T06:55:47.375Z,2.93
2016-03-19T06:56:47.362Z,2.9
2016-03-19T06:57:47.396Z,2.87
2016-03-19T06:58:47.368Z,3
2016-03-19T06:59:47.339Z,3.01
2016-03-19T07:00:47.357Z,2.93
2016-03-19T07:01:47.344Z,2.95
2016-03-19T07:02:47.346Z,3.05
2016-03-19T07:03:47.319Z,3.07
2016-03-19T07:04:47.321Z,3.11
2016-03-19T07:05:47.340Z,3.14
2016-03-19T07:06:47.327Z,3.04
2016-03-19T07:07:47.314Z,2.92
2016-03-19T07:08:47.317Z,3.01
2016-03-19T07:09:47.304Z,3
2016-03-19T07:10:47.306Z,3.1
2016-03-19T07:11:47.309Z,3.16
2016-03-19T07:12:47.389Z,3.18
2016-03-19T07:13:47.298Z,3.1
2016-03-19T07:14:47.286Z,3.13
2016-03-19T07:15:47.288Z,3.23
2016-03-19T07:16:47.120Z,3.26
2016-03-19T07:17:47.262Z,3.22
2016-03-19T07:18:47.281Z,3.25
2016-03-19T07:19:47.267Z,3.19
2016-03-19T07:20:47.255Z,3.16
2016-03-19T07:21:47.242Z,3.13
2016-03-19T07:22:47.245Z,3.16
2016-03-19T07:23:47.232Z,3.08
2016-03-19T07:24:47.235Z,3.04
2016-03-19T07:25:47.222Z,3.18
2016-03-19T07:26:47.083Z,3.07
2016-03-19T07:27:47.274Z,3.14
2016-03-19T07:28:47.230Z,3.1
2016-03-19T07:29:47.233Z,3.13
2016-03-19T07:30:47.235Z,3.11
2016-03-19T07:31:47.207Z,3.22
2016-03-19T07:32:47.194Z,3.29
2016-03-19T07:33:47.196Z,3.28
2016-03-19T07:34:47.199Z,3.25
2016-03-19T07:35:47.202Z,3.37
2016-03-19T07:36:47.188Z,3.36
2016-03-19T07:37:47.191Z,3.25
2016-03-19T07:38:47.179Z,3.36
2016-03-19T07:39:47.165Z,3.31
2016-03-19T07:40:47.168Z,3.29
2016-03-19T07:41:47.170Z,3.4
2016-03-19T07:42:47.174Z,3.41
2016-03-19T07:43:47.145Z,3.34
2016-03-19T07:44:47.148Z,3.34
2016-03-19T07:45:47.150Z,3.48
2016-03-19T07:46:46.965Z,3.37
2016-03-19T07:47:47.140Z,3.34
2016-03-19T07:48:47.158Z,3.31
2016-03-19T07:49:47.130Z,3.32
2016-03-19T07:50:47.133Z,3.47
2016-03-19T07:51:47.120Z,3.45
2016-03-19T07:52:47.138Z,3.42
2016-03-19T07:53:47.109Z,3.5
2016-03-19T07:54:47.096Z,3.56
2016-03-19T07:55:47.114Z,3.5
2016-03-19T07:56:47.101Z,3.51
2016-03-19T07:57:47.104Z,3.48
2016-03-19T07:58:47.107Z,3.59
2016-03-19T07:59:47.079Z,3.53
2016-03-19T08:00:47.081Z,3.63
2016-03-19T08:01:47.084Z,3.6
2016-03-19T08:02:47.071Z,3.63
2016-03-19T08:03:47.089Z,3.65
2016-03-19T08:04:47.077Z,3.7
2016-03-19T08:05:47.048Z,3.65
2016-03-19T08:06:47.051Z,3.62
2016-03-19T08:07:47.053Z,3.77
2016-03-19T08:08:47.040Z,3.76
2016-03-19T08:09:47.042Z,3.74
2016-03-19T08:10:47.029Z,3.68
2016-03-19T08:11:47.032Z,3.76
2016-03-19T08:12:47.082Z,3.63
2016-03-19T08:13:46.898Z,3.62
2016-03-19T08:14:47.041Z,3.66
2016-03-19T08:15:47.043Z,3.63
2016-03-19T08:16:47.015Z,3.65
2016-03-19T08:17:47.017Z,3.59
2016-03-19T08:18:47.051Z,3.69
2016-03-19T08:19:47.008Z,3.56
2016-03-19T08:20:46.995Z,3.58
2016-03-19T08:21:47.013Z,3.58
2016-03-19T08:22:46.984Z,3.63
2016-03-19T08:23:47.003Z,3.6
2016-03-19T08:24:47.021Z,3.7
2016-03-19T08:25:46.992Z,3.65
2016-03-19T08:26:47.011Z,3.69
2016-03-19T08:27:46.983Z,3.69
2016-03-19T08:28:46.969Z,3.74
2016-03-19T08:29:46.955Z,3.68
2016-03-19T08:30:46.958Z,3.68
2016-03-19T08:31:46.946Z,3.73
2016-03-19T08:32:46.996Z,3.69
2016-03-19T08:33:46.952Z,3.66
2016-03-19T08:34:46.970Z,3.74
2016-03-19T08:35:46.926Z,3.76
2016-03-19T08:36:46.928Z,3.69
2016-03-19T08:37:46.962Z,3.62
2016-03-19T08:38:46.934Z,3.68
2016-03-19T08:39:46.936Z,3.62
2016-03-19T08:40:46.939Z,3.59
2016-03-19T08:41:46.926Z,3.58
2016-03-19T08:42:46.929Z,3.53
2016-03-19T08:43:46.947Z,3.53
2016-03-19T08:44:46.918Z,3.53
2016-03-19T08:45:46.906Z,3.51
2016-03-19T08:46:46.923Z,3.51
2016-03-19T08:47:46.911Z,3.48
2016-03-19T08:48:46.881Z,3.51
2016-03-19T08:49:46.885Z,3.53
2016-03-19T08:50:46.872Z,3.58
2016-03-19T08:51:46.874Z,3.56
2016-03-19T08:52:46.878Z,3.69
2016-03-19T08:53:46.880Z,3.73
2016-03-19T08:54:46.914Z,3.63
2016-03-19T08:55:46.869Z,3.59
2016-03-19T08:56:46.858Z,3.59
2016-03-19T08:57:46.891Z,3.56
2016-03-19T08:58:46.846Z,3.59
2016-03-19T08:59:46.850Z,3.6
2016-03-19T09:00:46.852Z,3.68
2016-03-19T09:01:46.839Z,3.63
2016-03-19T09:02:46.841Z,3.69
2016-03-19T09:03:46.844Z,3.76
2016-03-19T09:04:46.832Z,3.78
2016-03-19T09:05:46.818Z,3.84
2016-03-19T09:06:46.838Z,3.86
2016-03-19T09:07:46.808Z,3.84
2016-03-19T09:08:46.811Z,3.96
2016-03-19T09:09:46.798Z,3.95
2016-03-19T09:10:46.816Z,3.98
2016-03-19T09:11:46.803Z,4.01
2016-03-19T09:12:46.806Z,4.05
2016-03-19T09:13:46.839Z,4.06
2016-03-19T09:14:46.796Z,3.98
2016-03-19T09:15:46.798Z,3.92
2016-03-19T09:16:46.786Z,3.91
2016-03-19T09:17:46.789Z,3.86
2016-03-19T09:18:46.775Z,3.95
2016-03-19T09:19:46.622Z,4.04
2016-03-19T09:20:46.780Z,4.01
2016-03-19T09:21:46.768Z,4.02
2016-03-19T09:22:46.770Z,4.02
2016-03-19T09:23:46.773Z,4.19
2016-03-19T09:24:46.760Z,4.05
2016-03-19T09:25:46.763Z,4.12
2016-03-19T09:26:46.766Z,4.12
2016-03-19T09:27:46.768Z,4.06
2016-03-19T09:28:46.755Z,4.05
2016-03-19T09:29:46.742Z,3.94
2016-03-19T09:30:46.636Z,3.95
2016-03-19T09:31:46.732Z,3.87
2016-03-19T09:32:46.735Z,3.95
2016-03-19T09:33:46.738Z,3.96
2016-03-19T09:34:46.755Z,3.98
2016-03-19T09:35:46.743Z,3.96
2016-03-19T09:36:46.715Z,4.04
2016-03-19T09:37:46.733Z,4.16
2016-03-19T09:38:46.720Z,4.16
2016-03-19T09:39:46.738Z,4.13
2016-03-19T09:40:46.694Z,4.2
2016-03-19T09:41:46.728Z,4.04
2016-03-19T09:42:46.715Z,4.19
2016-03-19T09:43:46.687Z,4.22
2016-03-19T09:44:46.704Z,4.12
2016-03-19T09:45:46.692Z,4.14
2016-03-19T09:46:46.678Z,4.23
2016-03-19T09:47:46.713Z,4.28
2016-03-19T09:48:46.668Z,4.42
2016-03-19T09:49:46.687Z,4.42
2016-03-19T09:50:46.690Z,4.45
2016-03-19T09:51:46.692Z,4.49
2016-03-19T09:52:46.664Z,4.53
2016-03-19T09:53:46.666Z,4.59
2016-03-19T09:54:46.669Z,4.62
2016-03-19T09:55:46.672Z,4.42
2016-03-19T09:56:46.689Z,4.42
2016-03-19T09:57:46.646Z,4.41
2016-03-19T09:58:59.399Z,4.37
2016-03-19T09:59:46.667Z,4.3
2016-03-19T10:00:46.639Z,4.26
2016-03-19T10:01:46.485Z,4.31
2016-03-19T10:02:59.378Z,4.28
2016-03-19T10:03:46.630Z,4.37
2016-03-19T10:04:46.649Z,4.35
2016-03-19T10:05:46.652Z,4.41
2016-03-19T10:06:46.624Z,4.5
2016-03-19T10:07:46.626Z,4.52
2016-03-19T10:08:47.004Z,4.68
2016-03-19T10:09:46.615Z,4.66
2016-03-19T10:10:46.634Z,4.73
2016-03-19T10:11:46.621Z,4.59
2016-03-19T10:12:46.608Z,4.62
2016-03-19T10:13:46.627Z,4.5
2016-03-19T10:14:46.615Z,4.52
2016-03-19T10:15:46.586Z,4.48
2016-03-19T10:16:46.558Z,4.34
2016-03-19T10:17:46.545Z,4.32
2016-03-19T10:18:46.531Z,4.26
2016-03-19T10:19:46.543Z,4.34
2016-03-19T10:20:46.525Z,4.23
2016-03-19T10:21:46.492Z,4.28
2016-03-19T10:22:46.489Z,4.34
2016-03-19T10:23:46.501Z,4.35
2016-03-19T10:24:46.486Z,4.31
2016-03-19T10:25:46.471Z,4.26
2016-03-19T10:26:46.472Z,4.23
2016-03-19T10:27:46.473Z,4.22
2016-03-19T10:28:46.443Z,4.31
2016-03-19T10:29:46.475Z,4.3
2016-03-19T10:30:46.461Z,4.38
2016-03-19T10:31:46.432Z,4.37
2016-03-19T10:32:46.450Z,4.4
2016-03-19T10:33:46.436Z,4.4
2016-03-19T10:34:46.455Z,4.53
2016-03-19T10:35:46.425Z,4.59
2016-03-19T10:36:46.412Z,4.56
2016-03-19T10:37:46.414Z,4.67
2016-03-19T10:38:46.401Z,4.68
2016-03-19T10:39:46.403Z,4.66
2016-03-19T10:40:46.391Z,4.6
2016-03-19T10:41:46.424Z,4.5
2016-03-19T10:42:46.380Z,4.56
2016-03-19T10:43:46.399Z,4.59
2016-03-19T10:44:46.386Z,4.6
2016-03-19T10:45:46.405Z,4.6
2016-03-19T10:46:46.391Z,4.68
2016-03-19T10:47:46.394Z,4.7
2016-03-19T10:48:46.380Z,4.71
2016-03-19T10:49:46.368Z,4.73
2016-03-19T10:50:46.371Z,4.75
2016-03-19T10:51:46.373Z,4.86
2016-03-19T10:52:46.360Z,4.92
2016-03-19T10:53:46.332Z,4.8
2016-03-19T10:54:46.366Z,4.84
2016-03-19T10:55:46.353Z,4.86
2016-03-19T10:56:46.340Z,4.94
2016-03-19T10:57:46.358Z,4.86
2016-03-19T10:58:46.329Z,4.92
2016-03-19T10:59:46.332Z,4.84
2016-03-19T11:00:46.335Z,4.86
2016-03-19T11:01:46.337Z,4.86
2016-03-19T11:02:46.340Z,4.92
2016-03-19T11:03:46.328Z,4.96
2016-03-19T11:04:46.330Z,4.99
2016-03-19T11:05:46.333Z,4.99
2016-03-19T11:06:46.320Z,4.9
2016-03-19T11:07:46.306Z,4.97
2016-03-19T11:08:46.325Z,4.97
2016-03-19T11:09:46.312Z,5.04
2016-03-19T11:10:46.300Z,5.1
2016-03-19T11:11:46.317Z,5.14
2016-03-19T11:12:46.305Z,5.15
2016-03-19T11:13:46.323Z,5.18
2016-03-19T11:14:46.294Z,5.25
2016-03-19T11:15:46.313Z,5.28
2016-03-19T11:16:46.316Z,5.23
2016-03-19T11:17:46.302Z,5.18
2016-03-19T11:18:46.321Z,5.05
2016-03-19T11:19:46.276Z,4.96
2016-03-19T11:20:46.280Z,5.08
2016-03-19T11:21:46.282Z,5
2016-03-19T11:22:46.285Z,5.11
2016-03-19T11:23:46.287Z,5.14
2016-03-19T11:24:46.274Z,5.28
2016-03-19T11:25:46.277Z,5.28
2016-03-19T11:26:46.264Z,5.25
2016-03-19T11:27:46.283Z,5.26
2016-03-19T11:28:46.270Z,5.26
2016-03-19T11:29:46.288Z,5.12
2016-03-19T11:30:46.275Z,5.23
2016-03-19T11:31:46.262Z,5.11
2016-03-19T11:32:46.280Z,5.12
2016-03-19T11:33:46.236Z,5.1
2016-03-19T11:34:46.254Z,5.17
2016-03-19T11:35:46.289Z,5.12
2016-03-19T11:36:46.245Z,5.11
2016-03-19T11:37:46.232Z,5.15
2016-03-19T11:38:46.250Z,5.2
2016-03-19T11:39:46.237Z,5.26
2016-03-19T11:40:46.239Z,5.32
2016-03-19T11:41:46.242Z,5.36
2016-03-19T11:42:46.228Z,5.29
2016-03-19T11:43:46.091Z,5.26
2016-03-19T11:44:45.468Z,5.18
2016-03-19T11:45:46.236Z,5.17
2016-03-19T11:46:46.240Z,5.28
2016-03-19T11:47:46.289Z,5.29
2016-03-19T11:48:46.245Z,5.32
2016-03-19T11:49:46.233Z,5.26
2016-03-19T11:50:46.235Z,5.23
2016-03-19T11:51:46.190Z,5.39
2016-03-19T11:52:46.225Z,5.41
2016-03-19T11:53:46.055Z,5.36
2016-03-19T11:54:46.215Z,5.38
2016-03-19T11:55:46.217Z,5.39
2016-03-19T11:56:46.235Z,5.46
2016-03-19T11:57:46.191Z,5.41
2016-03-19T11:58:46.053Z,5.35
2016-03-19T11:59:46.228Z,5.48
2016-03-19T12:00:46.215Z,5.56
2016-03-19T12:01:46.201Z,5.47
2016-03-19T12:02:46.174Z,5.66
2016-03-19T12:03:46.207Z,5.72
2016-03-19T12:04:46.210Z,5.79
2016-03-19T12:05:46.197Z,5.89
2016-03-19T12:06:46.184Z,5.93
2016-03-19T12:07:46.234Z,5.97
2016-03-19T12:08:46.173Z,6.01
2016-03-19T12:09:45.426Z,6.05
2016-03-19T12:10:46.211Z,6.07
2016-03-19T12:11:46.167Z,6.19
2016-03-19T12:12:46.185Z,6.14
2016-03-19T12:13:46.219Z,6.12
2016-03-19T12:14:46.175Z,6.14
2016-03-19T12:15:46.177Z,6.11
2016-03-19T12:16:46.227Z,6.2
2016-03-19T12:17:46.213Z,6.42
2016-03-19T12:18:46.233Z,6.35
2016-03-19T12:19:46.141Z,6.44
2016-03-19T12:20:46.175Z,6.6
2016-03-19T12:21:46.177Z,6.62
2016-03-19T12:22:46.180Z,6.67
2016-03-19T12:23:46.152Z,6.64
2016-03-19T12:24:46.171Z,6.64
2016-03-19T12:25:46.173Z,6.64
2016-03-19T12:26:46.159Z,6.64
2016-03-19T12:27:46.147Z,6.52
2016-03-19T12:28:46.118Z,6.46
2016-03-19T12:29:46.152Z,6.36
2016-03-19T12:30:46.171Z,6.39
2016-03-19T12:31:46.157Z,6.19
2016-03-19T12:32:46.160Z,6.11
2016-03-19T12:33:46.147Z,6.16
2016-03-19T12:34:46.166Z,6.08
2016-03-19T12:35:46.153Z,6.14
2016-03-19T12:36:46.155Z,6.28
2016-03-19T12:37:46.158Z,6.36
2016-03-19T12:38:46.161Z,6.45
2016-03-19T12:39:46.148Z,6.48
2016-03-19T12:40:46.135Z,6.63
2016-03-19T12:41:46.169Z,6.44
2016-03-19T12:42:46.140Z,6.59
2016-03-19T12:43:46.252Z,6.57
2016-03-19T12:44:46.146Z,6.6
2016-03-19T12:45:46.117Z,6.69
2016-03-19T12:46:46.150Z,6.78
2016-03-19T12:47:46.154Z,6.74
2016-03-19T12:48:46.125Z,6.88
2016-03-19T12:49:46.144Z,6.89
2016-03-19T12:50:46.131Z,6.89
2016-03-19T12:51:46.133Z,6.96
2016-03-19T12:52:46.135Z,6.92
2016-03-19T12:53:46.139Z,6.88
2016-03-19T12:54:46.141Z,6.85
2016-03-19T12:55:46.129Z,6.69
2016-03-19T12:56:46.131Z,6.72
2016-03-19T12:57:46.134Z,6.52
2016-03-19T12:58:46.137Z,6.59
2016-03-19T12:59:46.139Z,6.38
2016-03-19T13:00:46.236Z,6.42
2016-03-19T13:01:46.191Z,6.39
2016-03-19T13:02:46.132Z,6.45
2016-03-19T13:03:46.118Z,6.49
2016-03-19T13:04:46.137Z,6.41
2016-03-19T13:05:46.140Z,6.39
2016-03-19T13:06:46.111Z,6.41
2016-03-19T13:07:46.129Z,6.44
2016-03-19T13:08:46.132Z,6.35
2016-03-19T13:09:46.134Z,6.41
2016-03-19T13:10:46.123Z,6.42
2016-03-19T13:11:46.125Z,6.33
2016-03-19T13:12:45.971Z,6.42
2016-03-19T13:13:46.130Z,6.35
2016-03-19T13:14:46.133Z,6.42
2016-03-19T13:15:46.089Z,6.38
2016-03-19T13:16:46.122Z,6.31
2016-03-19T13:17:46.125Z,6.44
2016-03-19T13:18:46.128Z,6.41
2016-03-19T13:19:46.099Z,6.54
2016-03-19T13:20:46.102Z,6.46
2016-03-19T13:21:46.120Z,6.44
2016-03-19T13:22:46.107Z,6.51